Time;durP1;ratioP1;P1;durP2;ratioP2;P2;SDS_P1;SDS_P2;PMS_P1;PMS_P2;Temp;Humidity;BMP_temperature;BMP_pressure;BME280_temperature;BME280_humidity;BME280_pressure;Samples;Min_cycle;Max_cycle;Signal;HPM_P1;HPM_P2
2023/06/25 00:02:10;;;;;;;15.38;7.78;;;;;;;;;;6297048;22;20157;-88
2023/06/25 00:05:16;;;;;;;12.52;7.00;;;;;;;;;;6300055;22;20149;-91
2023/06/25 00:08:21;;;;;;;12.15;6.32;;;;;;;;;;6300486;22;20161;-90
2023/06/25 00:11:26;;;;;;;11.45;6.22;;;;;;;;;;6319012;22;20288;-90
2023/06/25 00:14:31;;;;;;;11.50;6.15;;;;;;;;;;6299032;22;20169;-89
2023/06/25 00:17:37;;;;;;;10.85;5.32;;;;;;;;;;6298465;22;20154;-90
2023/06/25 00:20:46;;;;;;;13.75;6.22;;;;;;;;;;6299616;22;20153;-89
2023/06/25 00:23:51;;;;;;;11.43;6.28;;;;;;;;;;6320783;22;20170;-89
2023/06/25 00:27:04;;;;;;;11.02;5.65;;;;;;;;;;6306151;22;20612;-90
2023/06/25 00:30:10;;;;;;;9.20;5.47;;;;;;;;;;6283554;22;20161;-90
2023/06/25 00:33:16;;;;;;;14.88;6.35;;;;;;;;;;6300462;22;20189;-90
2023/06/25 00:36:24;;;;;;;9.98;5.80;;;;;;;;;;6300744;22;20149;-89
2023/06/25 00:39:34;;;;;;;12.23;5.53;;;;;;;;;;6300567;22;20165;-92
2023/06/25 00:42:41;;;;;;;11.27;5.45;;;;;;;;;;6301739;22;20161;-90
2023/06/25 00:45:47;;;;;;;12.63;5.65;;;;;;;;;;6300724;22;20263;-87
2023/06/25 00:48:53;;;;;;;8.70;5.82;;;;;;;;;;6300296;22;20166;-89
2023/06/25 00:52:00;;;;;;;8.23;5.30;;;;;;;;;;6320575;22;20200;-91
2023/06/25 00:55:08;;;;;;;10.75;6.25;;;;;;;;;;6302721;22;20167;-86
2023/06/25 00:58:40;;;;;;;12.05;5.95;;;;;;;;;;6301650;22;20494;-89
2023/06/25 01:01:47;;;;;;;9.45;5.47;;;;;;;;;;6299936;22;20165;-89
2023/06/25 01:04:58;;;;;;;11.40;5.60;;;;;;;;;;6301442;22;20157;-88
2023/06/25 01:08:08;;;;;;;10.43;5.97;;;;;;;;;;6302081;22;20611;-90
2023/06/25 01:11:13;;;;;;;9.27;5.93;;;;;;;;;;6302394;22;20161;-88
2023/06/25 01:14:18;;;;;;;9.05;5.75;;;;;;;;;;6300941;22;20168;-89
2023/06/25 01:17:23;;;;;;;11.60;5.65;;;;;;;;;;6300571;22;20198;-90
2023/06/25 01:20:29;;;;;;;12.75;6.13;;;;;;;;;;6301654;22;20153;-91
2023/06/25 01:23:36;;;;;;;11.55;6.60;;;;;;;;;;6300640;22;20231;-88
2023/06/25 01:26:44;;;;;;;10.50;6.25;;;;;;;;;;6300557;22;20162;-90
2023/06/25 01:29:49;;;;;;;10.95;6.72;;;;;;;;;;6299585;22;20280;-89
2023/06/25 01:32:54;;;;;;;17.73;6.78;;;;;;;;;;6299621;22;20189;-91
2023/06/25 01:35:59;;;;;;;15.43;6.68;;;;;;;;;;6319363;22;20144;-88
2023/06/25 01:39:11;;;;;;;13.27;6.10;;;;;;;;;;6300225;22;20180;-91
2023/06/25 01:42:15;;;;;;;10.35;5.65;;;;;;;;;;6301742;22;20596;-89
2023/06/25 01:45:20;;;;;;;10.10;6.05;;;;;;;;;;6299679;22;20310;-89
2023/06/25 01:48:26;;;;;;;13.07;6.20;;;;;;;;;;6300607;22;20192;-86
2023/06/25 01:51:31;;;;;;;13.65;6.88;;;;;;;;;;6300112;22;20165;-90
2023/06/25 01:54:37;;;;;;;8.57;6.03;;;;;;;;;;6300513;22;20250;-89
2023/06/25 01:58:08;;;;;;;11.85;6.20;;;;;;;;;;6299418;22;20208;-88
2023/06/25 02:01:13;;;;;;;10.88;5.97;;;;;;;;;;6300299;22;20161;-87
2023/06/25 02:04:19;;;;;;;11.02;6.35;;;;;;;;;;6298054;22;20311;-89
2023/06/25 02:07:24;;;;;;;14.50;6.43;;;;;;;;;;6299280;22;20157;-90
2023/06/25 02:10:32;;;;;;;9.68;6.20;;;;;;;;;;6299255;22;20165;-90
2023/06/25 02:13:37;;;;;;;12.27;6.50;;;;;;;;;;6298403;22;20232;-88
2023/06/25 02:16:42;;;;;;;11.82;6.00;;;;;;;;;;6299543;22;20162;-88
2023/06/25 02:19:48;;;;;;;9.50;5.93;;;;;;;;;;6298538;22;20161;-90
2023/06/25 02:22:53;;;;;;;13.52;6.85;;;;;;;;;;6300523;22;20148;-88
2023/06/25 02:25:59;;;;;;;9.93;5.95;;;;;;;;;;6300423;22;20616;-88
2023/06/25 02:29:04;;;;;;;10.95;6.07;;;;;;;;;;6299992;22;20165;-88
2023/06/25 02:32:10;;;;;;;11.05;6.50;;;;;;;;;;6300206;22;20196;-88
2023/06/25 02:35:15;;;;;;;13.02;7.10;;;;;;;;;;6300189;22;20160;-89
2023/06/25 02:38:20;;;;;;;11.07;6.18;;;;;;;;;;6299162;22;20235;-89
2023/06/25 02:41:44;;;;;;;14.75;7.10;;;;;;;;;;6300545;22;20165;-90
2023/06/25 02:44:51;;;;;;;15.60;6.72;;;;;;;;;;6298277;22;20192;-89
2023/06/25 02:47:56;;;;;;;12.05;6.60;;;;;;;;;;6301256;22;20149;-88
2023/06/25 02:51:01;;;;;;;12.45;6.65;;;;;;;;;;6299294;22;20160;-86
2023/06/25 02:54:07;;;;;;;16.88;6.55;;;;;;;;;;6301417;22;20162;-90
2023/06/25 02:57:12;;;;;;;13.73;6.85;;;;;;;;;;6300395;22;20916;-90
2023/06/25 03:00:19;;;;;;;14.75;6.75;;;;;;;;;;6299175;22;20608;-90
2023/06/25 03:03:24;;;;;;;14.23;6.82;;;;;;;;;;6299991;22;20148;-88
2023/06/25 03:06:29;;;;;;;10.95;6.82;;;;;;;;;;6301046;22;20173;-90
2023/06/25 03:09:34;;;;;;;11.75;6.70;;;;;;;;;;6299456;22;20243;-89
2023/06/25 03:12:40;;;;;;;12.32;6.38;;;;;;;;;;6299825;22;20189;-89
2023/06/25 03:15:47;;;;;;;10.75;5.85;;;;;;;;;;6299588;22;20211;-89
2023/06/25 03:18:52;;;;;;;11.80;6.50;;;;;;;;;;6298668;22;20141;-90
2023/06/25 03:22:01;;;;;;;10.98;6.60;;;;;;;;;;6300123;22;20169;-90
2023/06/25 03:25:10;;;;;;;15.32;6.90;;;;;;;;;;6298685;22;20169;-90
2023/06/25 03:28:18;;;;;;;15.75;6.55;;;;;;;;;;6299122;22;20168;-89
2023/06/25 03:31:24;;;;;;;11.60;6.95;;;;;;;;;;6297450;22;20165;-90
2023/06/25 03:34:33;;;;;;;13.45;6.57;;;;;;;;;;6299070;22;20161;-88
2023/06/25 03:37:39;;;;;;;10.68;6.97;;;;;;;;;;6299448;22;20654;-88
2023/06/25 03:40:44;;;;;;;13.20;6.80;;;;;;;;;;6298269;22;20161;-89
2023/06/25 03:43:50;;;;;;;12.85;6.35;;;;;;;;;;6300191;22;20168;-90
2023/06/25 03:46:56;;;;;;;13.40;6.88;;;;;;;;;;6299001;22;20199;-89
2023/06/25 03:50:01;;;;;;;16.20;7.22;;;;;;;;;;6300205;22;20153;-91
2023/06/25 03:53:07;;;;;;;13.57;6.60;;;;;;;;;;6299605;22;20227;-89
2023/06/25 03:56:15;;;;;;;11.15;5.75;;;;;;;;;;6297939;22;20165;-88
2023/06/25 03:59:20;;;;;;;11.80;6.07;;;;;;;;;;6301628;22;20204;-89
2023/06/25 04:02:26;;;;;;;13.57;6.85;;;;;;;;;;6301549;22;20479;-90
2023/06/25 04:05:31;;;;;;;12.68;6.90;;;;;;;;;;6302533;22;20153;-89
2023/06/25 04:08:36;;;;;;;10.07;6.10;;;;;;;;;;6302888;22;20169;-90
2023/06/25 04:11:41;;;;;;;9.27;5.95;;;;;;;;;;6301157;22;20207;-90
2023/06/25 04:14:46;;;;;;;18.88;6.78;;;;;;;;;;6302496;22;20248;-89
2023/06/25 04:17:53;;;;;;;11.23;6.70;;;;;;;;;;6302328;22;20188;-88
2023/06/25 04:20:59;;;;;;;13.07;6.38;;;;;;;;;;6302062;22;20153;-89
2023/06/25 04:24:03;;;;;;;11.82;6.65;;;;;;;;;;6301334;22;20173;-90
2023/06/25 04:27:10;;;;;;;10.93;6.78;;;;;;;;;;6302290;22;20173;-89
2023/06/25 04:30:15;;;;;;;16.10;6.88;;;;;;;;;;6301758;22;20168;-88
2023/06/25 04:33:22;;;;;;;11.20;6.57;;;;;;;;;;6302271;22;20236;-90
2023/06/25 04:36:27;;;;;;;13.45;6.88;;;;;;;;;;6301796;22;20157;-89
2023/06/25 04:39:38;;;;;;;15.55;6.70;;;;;;;;;;6299477;22;20208;-88
2023/06/25 04:42:44;;;;;;;11.88;6.35;;;;;;;;;;6300822;22;20184;-88
2023/06/25 04:45:49;;;;;;;12.40;6.57;;;;;;;;;;6299870;22;20185;-89
2023/06/25 04:48:56;;;;;;;11.30;6.45;;;;;;;;;;6300027;22;20223;-89
2023/06/25 04:52:01;;;;;;;13.50;6.25;;;;;;;;;;6302686;22;20565;-89
2023/06/25 04:55:07;;;;;;;15.15;7.18;;;;;;;;;;6301006;22;20287;-91
2023/06/25 04:58:14;;;;;;;15.60;6.75;;;;;;;;;;6299704;22;20218;-90
2023/06/25 05:01:19;;;;;;;11.35;5.90;;;;;;;;;;6300705;22;20537;-90
2023/06/25 05:04:25;;;;;;;12.88;6.90;;;;;;;;;;6301531;22;20168;-90
2023/06/25 05:07:31;;;;;;;12.75;7.47;;;;;;;;;;6301200;22;20193;-89
2023/06/25 05:10:36;;;;;;;12.77;6.93;;;;;;;;;;6302229;22;20300;-90
2023/06/25 05:13:41;;;;;;;14.43;7.07;;;;;;;;;;6301764;22;20319;-90
2023/06/25 05:16:46;;;;;;;12.30;7.40;;;;;;;;;;6300784;22;20592;-89
2023/06/25 05:19:56;;;;;;;11.30;7.25;;;;;;;;;;6302032;22;20165;-89
2023/06/25 05:23:01;;;;;;;14.25;7.13;;;;;;;;;;6302801;22;20191;-89
2023/06/25 05:26:07;;;;;;;13.15;7.15;;;;;;;;;;6303181;22;20239;-90
2023/06/25 05:29:12;;;;;;;13.15;7.03;;;;;;;;;;6323429;22;20165;-88
2023/06/25 05:32:18;;;;;;;11.98;7.30;;;;;;;;;;6301928;22;20161;-89
2023/06/25 05:35:26;;;;;;;14.80;7.20;;;;;;;;;;6302421;22;20150;-87
2023/06/25 05:38:31;;;;;;;11.18;7.18;;;;;;;;;;6302100;22;20176;-89
2023/06/25 05:41:38;;;;;;;13.40;7.28;;;;;;;;;;6302171;22;20165;-90
2023/06/25 05:44:44;;;;;;;13.10;7.38;;;;;;;;;;6301455;22;20193;-90
2023/06/25 05:47:49;;;;;;;12.98;7.60;;;;;;;;;;6301854;22;20612;-90
2023/06/25 05:50:55;;;;;;;12.68;7.60;;;;;;;;;;6300470;22;20184;-89
2023/06/25 05:54:01;;;;;;;15.95;6.80;;;;;;;;;;6300184;22;20201;-89
2023/06/25 05:57:22;;;;;;;12.70;7.65;;;;;;;;;;6301249;22;20168;-89
2023/06/25 06:00:27;;;;;;;13.48;7.43;;;;;;;;;;6300430;22;20212;-90
2023/06/25 06:03:32;;;;;;;16.42;7.18;;;;;;;;;;6300350;22;20165;-91
2023/06/25 06:06:38;;;;;;;12.40;7.20;;;;;;;;;;6300676;22;20272;-89
2023/06/25 06:09:43;;;;;;;13.10;7.22;;;;;;;;;;6301809;22;20144;-90
2023/06/25 06:12:49;;;;;;;12.55;7.30;;;;;;;;;;6304523;22;20188;-89
2023/06/25 06:15:54;;;;;;;9.88;6.63;;;;;;;;;;6306889;22;20280;-88
2023/06/25 06:19:00;;;;;;;15.70;6.32;;;;;;;;;;6305016;22;20165;-90
2023/06/25 06:22:06;;;;;;;12.98;6.82;;;;;;;;;;6299077;22;20501;-89
2023/06/25 06:25:12;;;;;;;16.08;7.57;;;;;;;;;;6301319;22;20169;-89
2023/06/25 06:28:16;;;;;;;12.93;6.88;;;;;;;;;;6301097;22;20284;-89
2023/06/25 06:31:22;;;;;;;15.57;7.10;;;;;;;;;;6301473;22;20276;-89
2023/06/25 06:34:27;;;;;;;11.18;6.95;;;;;;;;;;6301530;22;20212;-88
2023/06/25 06:37:33;;;;;;;13.75;6.60;;;;;;;;;;6300627;22;20261;-89
2023/06/25 06:41:01;;;;;;;12.85;6.38;;;;;;;;;;6299474;22;20149;-87
2023/06/25 06:44:13;;;;;;;11.98;6.72;;;;;;;;;;6300564;22;20605;-89
2023/06/25 06:47:18;;;;;;;14.43;6.47;;;;;;;;;;6300527;22;20176;-89
2023/06/25 06:50:24;;;;;;;10.73;6.70;;;;;;;;;;6300165;22;20157;-91
2023/06/25 06:53:30;;;;;;;9.75;6.50;;;;;;;;;;6299828;22;20173;-90
2023/06/25 06:56:37;;;;;;;13.43;5.82;;;;;;;;;;6300727;22;20233;-89
2023/06/25 07:18:18;;;;;;;10.53;6.07;;;;;;;;;;6246461;22;1324460;-91
2023/06/25 07:21:23;;;;;;;11.90;6.82;;;;;;;;;;6204615;23;20195;-89
2023/06/25 07:24:29;;;;;;;11.05;6.28;;;;;;;;;;6204478;23;20195;-88
2023/06/25 07:27:38;;;;;;;9.95;6.28;;;;;;;;;;6205599;23;20195;-88
2023/06/25 07:30:43;;;;;;;10.93;6.43;;;;;;;;;;6205756;23;20630;-89
2023/06/25 07:33:50;;;;;;;8.98;6.00;;;;;;;;;;6204547;23;20167;-88
2023/06/25 07:36:56;;;;;;;10.20;6.40;;;;;;;;;;6208650;23;20275;-88
2023/06/25 07:40:29;;;;;;;8.80;5.60;;;;;;;;;;6202111;23;20163;-87
2023/06/25 07:43:34;;;;;;;8.65;6.15;;;;;;;;;;6204810;23;20167;-89
2023/06/25 07:46:39;;;;;;;10.07;5.68;;;;;;;;;;6204007;23;20163;-91
2023/06/25 07:49:45;;;;;;;10.15;6.63;;;;;;;;;;6206545;23;20171;-89
2023/06/25 07:52:51;;;;;;;8.65;5.63;;;;;;;;;;6204499;23;20211;-91
2023/06/25 07:55:56;;;;;;;10.90;5.97;;;;;;;;;;6206837;23;20176;-90
2023/06/25 07:59:08;;;;;;;9.55;5.30;;;;;;;;;;6207120;23;20175;-90
2023/06/25 08:02:13;;;;;;;11.38;5.40;;;;;;;;;;6206280;23;20211;-90
2023/06/25 08:05:20;;;;;;;10.02;5.20;;;;;;;;;;6205599;23;20244;-89
2023/06/25 08:08:25;;;;;;;8.35;5.32;;;;;;;;;;6202987;23;20178;-88
2023/06/25 08:14:49;;;;;;;8.85;5.80;;;;;;;;;;6202981;23;20229;-89
2023/06/25 08:17:54;;;;;;;9.45;6.00;;;;;;;;;;6200247;23;20167;-90
2023/06/25 08:21:03;;;;;;;7.10;5.40;;;;;;;;;;6200299;23;20186;-89
2023/06/25 08:24:08;;;;;;;8.82;5.57;;;;;;;;;;6198789;23;20247;-88
2023/06/25 08:27:13;;;;;;;9.10;5.30;;;;;;;;;;6197619;23;20146;-91
2023/06/25 08:30:18;;;;;;;8.63;5.75;;;;;;;;;;6198874;23;20171;-90
2023/06/25 08:33:24;;;;;;;16.92;5.70;;;;;;;;;;6197480;23;20266;-87
2023/06/25 08:36:30;;;;;;;8.18;5.53;;;;;;;;;;6197092;23;20490;-88
2023/06/25 08:40:06;;;;;;;10.68;5.80;;;;;;;;;;6197073;23;20208;-89
2023/06/25 08:43:11;;;;;;;8.73;5.35;;;;;;;;;;6198414;23;20179;-89
2023/06/25 08:46:16;;;;;;;7.88;5.35;;;;;;;;;;6198851;23;20211;-88
2023/06/25 08:49:23;;;;;;;9.43;5.20;;;;;;;;;;6198931;23;20163;-91
2023/06/25 08:52:30;;;;;;;8.48;5.38;;;;;;;;;;6199522;23;20190;-89
2023/06/25 08:55:36;;;;;;;7.97;5.07;;;;;;;;;;6197696;23;20236;-87
2023/06/25 08:58:45;;;;;;;5.97;4.60;;;;;;;;;;6199773;23;20171;-88
2023/06/25 09:01:50;;;;;;;7.15;5.00;;;;;;;;;;6200713;23;20226;-86
2023/06/25 09:05:03;;;;;;;8.05;4.93;;;;;;;;;;6200858;23;20167;-88
2023/06/25 09:08:15;;;;;;;6.88;4.70;;;;;;;;;;6197185;23;20219;-91
2023/06/25 09:11:29;;;;;;;7.85;4.60;;;;;;;;;;6199518;23;20258;-88
2023/06/25 09:14:36;;;;;;;5.38;4.43;;;;;;;;;;6198974;23;20167;-88
2023/06/25 09:17:41;;;;;;;7.20;4.57;;;;;;;;;;6198780;23;20162;-90
2023/06/25 09:20:48;;;;;;;7.55;4.45;;;;;;;;;;6200555;23;20179;-89
2023/06/25 09:23:54;;;;;;;8.30;4.82;;;;;;;;;;6197778;23;20199;-89
2023/06/25 09:27:00;;;;;;;7.05;4.72;;;;;;;;;;6199559;23;20155;-90
2023/06/25 09:30:05;;;;;;;6.50;4.80;;;;;;;;;;6199736;23;20163;-90
2023/06/25 09:33:11;;;;;;;6.38;4.50;;;;;;;;;;6201085;23;20167;-88
2023/06/25 09:36:16;;;;;;;7.90;4.70;;;;;;;;;;6199581;23;20167;-89
2023/06/25 09:39:22;;;;;;;5.75;4.43;;;;;;;;;;6199584;23;20256;-88
2023/06/25 09:42:28;;;;;;;6.90;5.10;;;;;;;;;;6198612;23;20195;-89
2023/06/25 09:45:34;;;;;;;12.25;5.00;;;;;;;;;;6199716;23;20151;-89
2023/06/25 09:48:39;;;;;;;6.63;4.88;;;;;;;;;;6202438;23;20227;-91
2023/06/25 09:51:54;;;;;;;8.73;4.95;;;;;;;;;;6200251;23;20171;-90
2023/06/25 09:55:02;;;;;;;6.50;4.63;;;;;;;;;;6200450;23;20168;-90
2023/06/25 09:58:07;;;;;;;5.93;4.80;;;;;;;;;;6200522;23;20183;-89
2023/06/25 10:01:13;;;;;;;6.97;4.43;;;;;;;;;;6199626;23;20241;-89
2023/06/25 10:04:18;;;;;;;8.32;4.60;;;;;;;;;;6201937;23;20170;-89
2023/06/25 10:07:24;;;;;;;6.18;4.40;;;;;;;;;;6199067;23;20169;-89
2023/06/25 10:10:32;;;;;;;8.90;4.95;;;;;;;;;;6201161;23;20163;-89
2023/06/25 10:13:41;;;;;;;8.38;4.45;;;;;;;;;;6200360;23;20499;-89
2023/06/25 10:16:52;;;;;;;8.88;5.00;;;;;;;;;;6200053;23;20160;-89
2023/06/25 10:19:59;;;;;;;8.48;5.00;;;;;;;;;;6201329;23;20203;-88
2023/06/25 10:23:08;;;;;;;9.60;5.10;;;;;;;;;;6200975;23;20713;-88
2023/06/25 10:26:15;;;;;;;6.20;4.55;;;;;;;;;;6198635;23;20167;-90
2023/06/25 10:29:21;;;;;;;7.22;4.78;;;;;;;;;;6197645;23;20163;-88
2023/06/25 10:32:27;;;;;;;7.47;5.07;;;;;;;;;;6197346;23;20195;-89
2023/06/25 10:35:37;;;;;;;6.68;4.80;;;;;;;;;;6197291;23;20170;-91
2023/06/25 10:38:42;;;;;;;8.75;4.85;;;;;;;;;;6198035;23;20166;-89
2023/06/25 10:41:51;;;;;;;6.15;4.60;;;;;;;;;;6198072;23;20645;-90
2023/06/25 10:44:57;;;;;;;6.47;4.45;;;;;;;;;;6197428;23;20228;-89
2023/06/25 10:48:06;;;;;;;8.10;5.13;;;;;;;;;;6198729;23;20219;-88
2023/06/25 10:51:12;;;;;;;6.00;4.90;;;;;;;;;;6197406;23;20162;-89
2023/06/25 10:54:21;;;;;;;6.65;4.60;;;;;;;;;;6198386;23;20535;-88
2023/06/25 10:57:29;;;;;;;7.63;4.85;;;;;;;;;;6199684;23;20163;-89
2023/06/25 11:00:34;;;;;;;6.78;4.88;;;;;;;;;;6197861;23;20159;-89
2023/06/25 11:03:43;;;;;;;8.02;5.32;;;;;;;;;;6197003;23;20307;-90
2023/06/25 11:06:48;;;;;;;8.70;4.70;;;;;;;;;;6198466;23;20227;-89
2023/06/25 11:09:56;;;;;;;9.05;4.65;;;;;;;;;;6196494;23;20163;-90
2023/06/25 11:13:02;;;;;;;6.85;4.80;;;;;;;;;;6197918;23;20618;-90
2023/06/25 11:16:08;;;;;;;7.68;5.38;;;;;;;;;;6197542;23;20167;-86
2023/06/25 11:19:15;;;;;;;7.38;5.05;;;;;;;;;;6193938;23;20244;-90
2023/06/25 11:22:20;;;;;;;9.57;5.03;;;;;;;;;;6196821;23;20259;-89
2023/06/25 11:25:25;;;;;;;8.80;4.90;;;;;;;;;;6198157;23;20493;-91
2023/06/25 11:28:31;;;;;;;6.85;4.82;;;;;;;;;;6197568;23;20619;-90
2023/06/25 11:31:44;;;;;;;6.88;4.70;;;;;;;;;;6196470;23;20163;-89
2023/06/25 11:34:49;;;;;;;7.90;5.45;;;;;;;;;;6197924;23;20175;-89
2023/06/25 11:37:55;;;;;;;10.77;5.25;;;;;;;;;;6199719;23;20172;-90
2023/06/25 11:41:07;;;;;;;6.38;4.90;;;;;;;;;;6197796;23;20179;-91
2023/06/25 11:44:20;;;;;;;8.45;4.85;;;;;;;;;;6198079;23;20167;-89
2023/06/25 11:47:25;;;;;;;7.43;4.38;;;;;;;;;;6198701;23;20199;-89
2023/06/25 11:50:31;;;;;;;7.97;5.38;;;;;;;;;;6201122;23;20179;-89
2023/06/25 11:53:36;;;;;;;8.10;4.55;;;;;;;;;;6200776;23;20618;-88
2023/06/25 11:57:09;;;;;;;8.45;4.93;;;;;;;;;;6200678;23;20717;-89
2023/06/25 12:00:16;;;;;;;9.68;4.97;;;;;;;;;;6198711;23;20210;-90
2023/06/25 12:03:21;;;;;;;8.30;5.72;;;;;;;;;;6198496;23;20247;-90
2023/06/25 12:06:27;;;;;;;6.32;5.03;;;;;;;;;;6198134;23;20171;-90
2023/06/25 12:09:32;;;;;;;6.18;4.47;;;;;;;;;;6199121;23;20171;-89
2023/06/25 12:12:37;;;;;;;7.55;4.90;;;;;;;;;;6198110;23;20250;-87
2023/06/25 12:15:44;;;;;;;7.13;4.90;;;;;;;;;;6197260;23;20256;-90
2023/06/25 12:22:22;;;;;;;6.53;4.72;;;;;;;;;;6198023;23;20255;-88
2023/06/25 12:25:29;;;;;;;6.38;4.65;;;;;;;;;;6198351;23;20167;-91
2023/06/25 12:28:34;;;;;;;6.70;4.70;;;;;;;;;;6196036;23;20167;-91
2023/06/25 12:31:40;;;;;;;7.22;4.63;;;;;;;;;;6196887;23;20163;-90
2023/06/25 12:34:46;;;;;;;12.63;4.97;;;;;;;;;;6197378;23;20164;-89
2023/06/25 12:37:51;;;;;;;6.05;4.97;;;;;;;;;;6196948;23;20615;-90
2023/06/25 12:40:57;;;;;;;7.22;4.93;;;;;;;;;;6196908;23;20162;-90
2023/06/25 12:44:02;;;;;;;7.55;5.07;;;;;;;;;;6198005;23;20171;-91
2023/06/25 12:47:09;;;;;;;9.10;5.00;;;;;;;;;;6196655;23;20167;-91
2023/06/25 12:50:15;;;;;;;7.15;5.20;;;;;;;;;;6198847;23;20626;-89
2023/06/25 12:53:20;;;;;;;6.47;4.72;;;;;;;;;;6197990;23;20174;-90
2023/06/25 12:56:28;;;;;;;6.93;5.13;;;;;;;;;;6199217;23;20635;-91
2023/06/25 12:59:33;;;;;;;7.93;4.82;;;;;;;;;;6199169;23;20175;-89
2023/06/25 13:02:40;;;;;;;5.78;4.57;;;;;;;;;;6197688;23;20195;-90
2023/06/25 13:05:45;;;;;;;9.70;5.10;;;;;;;;;;6200480;23;20147;-89
2023/06/25 13:08:51;;;;;;;8.43;5.05;;;;;;;;;;6198780;23;20214;-88
2023/06/25 13:11:56;;;;;;;8.80;4.90;;;;;;;;;;6203485;23;20228;-88
2023/06/25 13:15:01;;;;;;;7.22;4.60;;;;;;;;;;6201777;23;20167;-89
2023/06/25 13:18:08;;;;;;;8.32;4.63;;;;;;;;;;6199370;23;20159;-89
2023/06/25 13:21:13;;;;;;;5.30;4.35;;;;;;;;;;6197728;23;20179;-88
2023/06/25 13:24:19;;;;;;;6.82;4.93;;;;;;;;;;6200408;23;20261;-90
2023/06/25 13:27:24;;;;;;;6.70;4.60;;;;;;;;;;6200201;23;20167;-88
2023/06/25 13:30:32;;;;;;;8.70;5.00;;;;;;;;;;6200388;23;20211;-90
2023/06/25 13:33:40;;;;;;;6.82;4.65;;;;;;;;;;6197839;23;20175;-87
2023/06/25 13:36:45;;;;;;;6.95;4.97;;;;;;;;;;6198117;23;20622;-90
2023/06/25 13:39:51;;;;;;;8.85;5.22;;;;;;;;;;6199262;23;20171;-91
2023/06/25 13:43:00;;;;;;;7.43;4.88;;;;;;;;;;6198001;23;20203;-90
2023/06/25 13:46:05;;;;;;;6.13;4.72;;;;;;;;;;6197019;23;20695;-90
2023/06/25 13:49:13;;;;;;;5.80;4.55;;;;;;;;;;6196507;23;20174;-90
2023/06/25 13:52:18;;;;;;;6.78;5.10;;;;;;;;;;6196969;23;20167;-90
2023/06/25 13:55:24;;;;;;;6.50;4.95;;;;;;;;;;6197506;23;20294;-91
2023/06/25 13:58:28;;;;;;;6.50;4.65;;;;;;;;;;6196637;23;20634;-89
2023/06/25 14:01:34;;;;;;;6.50;4.82;;;;;;;;;;6197069;23;20171;-89
2023/06/25 14:04:40;;;;;;;7.32;4.70;;;;;;;;;;6197764;23;20691;-91
2023/06/25 14:07:46;;;;;;;8.68;5.10;;;;;;;;;;6197660;23;20174;-88
2023/06/25 14:10:51;;;;;;;6.22;5.10;;;;;;;;;;6199342;23;20187;-90
2023/06/25 14:13:56;;;;;;;6.43;4.90;;;;;;;;;;6197978;23;20242;-89
2023/06/25 14:17:02;;;;;;;7.20;5.25;;;;;;;;;;6197561;23;20697;-91
2023/06/25 14:20:09;;;;;;;9.65;5.28;;;;;;;;;;6198438;23;20190;-89
2023/06/25 14:23:15;;;;;;;7.97;5.00;;;;;;;;;;6197198;23;20190;-87
2023/06/25 14:26:20;;;;;;;8.23;4.95;;;;;;;;;;6197192;23;20171;-89
2023/06/25 14:29:37;;;;;;;5.80;4.63;;;;;;;;;;6200319;23;20240;-90
2023/06/25 14:32:42;;;;;;;6.75;4.72;;;;;;;;;;6196625;23;20183;-92
2023/06/25 14:35:49;;;;;;;7.57;4.70;;;;;;;;;;6197552;23;20168;-88
2023/06/25 14:38:54;;;;;;;6.28;5.10;;;;;;;;;;6194298;23;20214;-89
2023/06/25 14:41:59;;;;;;;6.45;4.90;;;;;;;;;;6197133;23;20152;-88
2023/06/25 14:45:05;;;;;;;7.18;4.75;;;;;;;;;;6196978;23;20166;-90
2023/06/25 14:48:10;;;;;;;7.60;5.40;;;;;;;;;;6197408;23;20212;-88
2023/06/25 14:51:17;;;;;;;7.95;5.13;;;;;;;;;;6197557;23;20178;-89
2023/06/25 14:54:22;;;;;;;7.10;5.30;;;;;;;;;;6197831;23;20171;-87
2023/06/25 14:57:28;;;;;;;11.10;5.47;;;;;;;;;;6197213;23;20220;-89
2023/06/25 15:00:34;;;;;;;7.70;4.97;;;;;;;;;;6198617;23;20163;-89
2023/06/25 15:03:39;;;;;;;8.32;5.30;;;;;;;;;;6198786;23;20242;-87
2023/06/25 15:06:46;;;;;;;7.15;5.07;;;;;;;;;;6197977;23;20182;-88
2023/06/25 15:09:51;;;;;;;13.13;5.57;;;;;;;;;;6198737;23;20163;-89
2023/06/25 15:12:56;;;;;;;10.35;5.60;;;;;;;;;;6199747;23;20158;-89
2023/06/25 15:16:02;;;;;;;6.90;5.00;;;;;;;;;;6196964;23;20678;-89
2023/06/25 15:19:07;;;;;;;7.63;5.25;;;;;;;;;;6198344;23;20240;-88
2023/06/25 15:22:14;;;;;;;7.93;5.00;;;;;;;;;;6197832;23;20272;-88
2023/06/25 15:25:19;;;;;;;7.20;5.25;;;;;;;;;;6200367;23;20191;-89
2023/06/25 15:28:25;;;;;;;7.78;5.55;;;;;;;;;;6198703;23;20211;-89
2023/06/25 15:31:31;;;;;;;7.22;5.30;;;;;;;;;;6198564;23;20174;-87
2023/06/25 15:34:36;;;;;;;8.48;5.45;;;;;;;;;;6200786;23;20172;-87
2023/06/25 15:37:42;;;;;;;10.82;5.63;;;;;;;;;;6199770;23;20180;-88
2023/06/25 15:40:56;;;;;;;7.85;5.50;;;;;;;;;;6199433;23;20620;-87
2023/06/25 15:44:01;;;;;;;9.73;5.18;;;;;;;;;;6200699;23;20191;-88
2023/06/25 15:47:07;;;;;;;8.52;5.60;;;;;;;;;;6198021;23;20156;-88
2023/06/25 15:50:14;;;;;;;9.27;5.07;;;;;;;;;;6200207;23;20256;-88
2023/06/25 15:53:22;;;;;;;9.45;5.47;;;;;;;;;;6202760;23;20172;-88
2023/06/25 15:56:29;;;;;;;8.77;5.57;;;;;;;;;;6201014;23;20172;-85
2023/06/25 15:59:34;;;;;;;9.95;5.45;;;;;;;;;;6199971;23;20172;-88
2023/06/25 16:02:39;;;;;;;7.70;5.60;;;;;;;;;;6199182;23;20152;-88
2023/06/25 16:05:44;;;;;;;7.82;5.30;;;;;;;;;;6199494;23;20180;-90
2023/06/25 16:08:52;;;;;;;10.45;5.78;;;;;;;;;;6198886;23;20188;-88
2023/06/25 16:11:57;;;;;;;7.05;5.07;;;;;;;;;;6199564;23;20242;-89
2023/06/25 16:15:03;;;;;;;7.82;5.30;;;;;;;;;;6199649;23;20246;-88
2023/06/25 16:18:14;;;;;;;6.43;4.82;;;;;;;;;;6196395;23;20167;-88
2023/06/25 16:21:19;;;;;;;8.82;5.70;;;;;;;;;;6198320;23;20199;-87
2023/06/25 16:24:26;;;;;;;9.20;5.68;;;;;;;;;;6197301;23;20213;-87
2023/06/25 16:27:31;;;;;;;9.55;5.53;;;;;;;;;;6199028;23;20200;-86
2023/06/25 16:30:36;;;;;;;7.57;5.53;;;;;;;;;;6198148;23;20168;-89
2023/06/25 16:33:41;;;;;;;10.32;5.53;;;;;;;;;;6199859;23;20152;-88
2023/06/25 16:36:46;;;;;;;10.63;5.57;;;;;;;;;;6198519;23;20225;-87
2023/06/25 16:39:53;;;;;;;10.50;5.55;;;;;;;;;;6200135;23;20193;-88
2023/06/25 16:42:59;;;;;;;7.85;5.38;;;;;;;;;;6198045;23;20192;-88
2023/06/25 16:46:05;;;;;;;11.18;7.10;;;;;;;;;;6198181;23;20168;-87
2023/06/25 16:49:10;;;;;;;11.98;6.28;;;;;;;;;;6200648;23;20163;-89
2023/06/25 16:52:15;;;;;;;9.40;6.07;;;;;;;;;;6200053;23;20187;-89
2023/06/25 16:55:22;;;;;;;7.50;5.25;;;;;;;;;;6199110;23;20223;-88
2023/06/25 16:58:56;;;;;;;7.25;4.95;;;;;;;;;;6202281;23;20264;-87
2023/06/25 17:02:09;;;;;;;9.07;5.40;;;;;;;;;;6202056;23;20164;-86
2023/06/25 17:05:16;;;;;;;12.48;6.00;;;;;;;;;;6208080;23;20323;-86
2023/06/25 17:08:23;;;;;;;10.05;5.88;;;;;;;;;;6207019;23;20620;-89
2023/06/25 17:11:30;;;;;;;9.68;5.95;;;;;;;;;;6203297;23;20237;-88
2023/06/25 17:14:39;;;;;;;8.68;5.35;;;;;;;;;;6204392;23;20168;-86
2023/06/25 17:17:44;;;;;;;10.07;5.50;;;;;;;;;;6187020;23;20241;-87
2023/06/25 17:21:21;;;;;;;9.32;6.05;;;;;;;;;;6202672;23;20187;-88
2023/06/25 17:24:26;;;;;;;8.90;5.53;;;;;;;;;;6200154;23;20216;-89
2023/06/25 17:27:33;;;;;;;10.98;5.80;;;;;;;;;;6207716;23;20168;-88
2023/06/25 17:30:42;;;;;;;9.85;5.90;;;;;;;;;;6205456;23;20172;-88
2023/06/25 17:33:47;;;;;;;11.77;5.72;;;;;;;;;;6201926;23;20239;-89
2023/06/25 17:36:52;;;;;;;8.32;5.78;;;;;;;;;;6201966;23;20223;-87
2023/06/25 17:40:00;;;;;;;11.27;5.90;;;;;;;;;;6201874;23;20167;-86
2023/06/25 17:43:07;;;;;;;8.35;5.70;;;;;;;;;;6202788;23;20217;-88
2023/06/25 17:46:13;;;;;;;8.98;5.65;;;;;;;;;;6203357;23;20193;-88
2023/06/25 17:49:20;;;;;;;11.68;5.60;;;;;;;;;;6204211;23;20184;-88
2023/06/25 17:52:26;;;;;;;10.20;5.63;;;;;;;;;;6205711;23;20176;-87
2023/06/25 17:55:32;;;;;;;10.90;5.55;;;;;;;;;;6205025;23;20188;-88
2023/06/25 17:58:51;;;;;;;10.93;5.88;;;;;;;;;;6206482;23;20534;-87
2023/06/25 18:01:59;;;;;;;10.85;6.43;;;;;;;;;;6206175;23;20201;-90
2023/06/25 18:05:04;;;;;;;9.00;5.55;;;;;;;;;;6204620;23;20196;-88
2023/06/25 18:08:14;;;;;;;9.77;5.35;;;;;;;;;;6205723;23;20215;-89
2023/06/25 18:11:21;;;;;;;11.02;6.78;;;;;;;;;;6205900;23;20160;-88
2023/06/25 18:14:26;;;;;;;7.75;5.57;;;;;;;;;;6203233;23;20212;-87
2023/06/25 18:17:37;;;;;;;8.75;5.45;;;;;;;;;;6200935;23;20184;-88
2023/06/25 18:20:42;;;;;;;11.07;6.65;;;;;;;;;;6201739;23;20225;-88
2023/06/25 18:23:48;;;;;;;9.45;6.35;;;;;;;;;;6201723;23;20258;-88
2023/06/25 18:26:55;;;;;;;10.05;6.72;;;;;;;;;;6201106;23;20180;-88
2023/06/25 18:30:00;;;;;;;13.45;8.13;;;;;;;;;;6201194;23;20163;-89
2023/06/25 18:33:07;;;;;;;18.35;10.13;;;;;;;;;;6199279;23;20172;-89
2023/06/25 18:36:12;;;;;;;14.40;8.30;;;;;;;;;;6201724;23;20175;-88
2023/06/25 18:39:47;;;;;;;19.30;10.52;;;;;;;;;;6196993;23;20156;-89
2023/06/25 18:42:52;;;;;;;19.13;11.32;;;;;;;;;;6197617;23;20167;-87
2023/06/25 18:45:58;;;;;;;44.15;17.88;;;;;;;;;;6199080;23;20167;-89
2023/06/25 18:49:05;;;;;;;28.35;11.38;;;;;;;;;;6199771;23;20223;-87
2023/06/25 18:52:11;;;;;;;13.23;7.22;;;;;;;;;;6199921;23;20192;-87
2023/06/25 18:55:16;;;;;;;11.32;6.97;;;;;;;;;;6199614;23;20615;-88
2023/06/25 18:58:21;;;;;;;10.45;6.38;;;;;;;;;;6201151;23;20175;-88